createdAt,value
2019-04-22T00:00:33.988Z,1015.37
2019-04-22T00:01:31.259Z,1015.33
2019-04-22T00:03:23.697Z,1015.33
2019-04-22T00:04:32.381Z,1015.37
2019-04-22T00:06:42.749Z,1015.34
2019-04-22T00:07:36.229Z,1015.36
2019-04-22T00:09:31.063Z,1015.38
2019-04-22T00:10:34.167Z,1015.37
2019-04-22T00:12:30.714Z,1015.39
2019-04-22T00:13:25.994Z,1015.39
2019-04-22T00:15:10.187Z,1015.32
2019-04-22T00:16:19.254Z,1015.34
2019-04-22T00:18:13.323Z,1015.31
2019-04-22T00:19:15.129Z,1015.33
2019-04-22T00:21:09.263Z,1015.25
2019-04-22T00:22:09.254Z,1015.31
2019-04-22T00:23:53.005Z,1015.26
2019-04-22T00:25:00.083Z,1015.28
2019-04-22T00:26:50.240Z,1015.26
2019-04-22T00:27:50.909Z,1015.22
2019-04-22T00:30:34.323Z,1015.19
2019-04-22T00:32:30.560Z,1015.16
2019-04-22T00:33:32.314Z,1015.19
2019-04-22T00:35:27.261Z,1015.18
2019-04-22T00:36:21.676Z,1015.18
2019-04-22T00:39:21.284Z,1015.14
2019-04-22T00:41:13.175Z,1015.15
2019-04-22T00:42:13.034Z,1015.12
2019-04-22T00:44:02.916Z,1015.13
2019-04-22T00:45:09.447Z,1015.12
2019-04-22T00:47:00.683Z,1015.10
2019-04-22T00:47:50.656Z,1015.09
2019-04-22T00:50:55.494Z,1015.11
2019-04-22T00:52:41.705Z,1015.12
2019-04-22T00:53:39.203Z,1015.13
2019-04-22T00:55:32.961Z,1015.12
2019-04-22T00:56:32.843Z,1015.18
2019-04-22T00:58:24.108Z,1015.17
2019-04-22T00:59:23.321Z,1015.18
2019-04-22T01:01:20.296Z,1015.15
2019-04-22T01:02:22.891Z,1015.11
2019-04-22T01:05:15.157Z,1015.09
2019-04-22T01:07:06.291Z,1015.11
2019-04-22T01:08:06.853Z,1015.13
2019-04-22T01:10:03.936Z,1015.11
2019-04-22T01:11:04.753Z,1015.14
2019-04-22T01:12:51.128Z,1015.12
2019-04-22T01:13:53.377Z,1015.07
2019-04-22T01:15:45.302Z,1015.11
2019-04-22T01:16:42.918Z,1015.06
2019-04-22T01:18:38.157Z,1015.06
2019-04-22T01:19:39.232Z,1015.06
2019-04-22T01:21:36.578Z,1015.01
2019-04-22T01:22:27.113Z,1015.02
2019-04-22T01:24:17.529Z,1015.00
2019-04-22T01:27:03.681Z,1014.96
2019-04-22T01:28:02.438Z,1014.96
2019-04-22T01:29:55.566Z,1014.93
2019-04-22T01:30:51.471Z,1014.96
2019-04-22T01:32:41.266Z,1014.97
2019-04-22T01:33:40.771Z,1014.94
2019-04-22T01:35:39.966Z,1014.92
2019-04-22T01:36:51.592Z,1014.97
2019-04-22T01:38:45.381Z,1014.94
2019-04-22T01:39:43.595Z,1014.97
2019-04-22T01:41:42.023Z,1014.91
2019-04-22T01:42:42.804Z,1014.93
2019-04-22T01:44:33.401Z,1014.88
2019-04-22T01:45:31.351Z,1014.88
2019-04-22T01:47:25.750Z,1014.91
2019-04-22T01:48:27.001Z,1014.86
2019-04-22T01:50:21.434Z,1014.84
2019-04-22T01:51:26.787Z,1014.82
2019-04-22T01:54:15.108Z,1014.81
2019-04-22T01:56:38.275Z,1014.80
2019-04-22T01:57:28.444Z,1014.79
2019-04-22T01:59:15.446Z,1014.76
2019-04-22T02:00:18.986Z,1014.76
2019-04-22T02:02:19.066Z,1014.75
2019-04-22T02:03:17.232Z,1014.74
2019-04-22T02:05:15.747Z,1014.67
2019-04-22T02:08:09.674Z,1014.70
2019-04-22T02:09:09.433Z,1014.73
2019-04-22T02:10:54.802Z,1014.66
2019-04-22T02:13:49.803Z,1014.67
2019-04-22T02:14:44.252Z,1014.67
2019-04-22T02:16:45.724Z,1014.63
2019-04-22T02:22:45.263Z,1014.67
2019-04-22T02:25:23.741Z,1014.66
2019-04-22T02:26:35.544Z,1014.64
2019-04-22T02:28:16.743Z,1014.63
2019-04-22T02:29:15.035Z,1014.61
2019-04-22T02:32:19.501Z,1014.63
2019-04-22T02:35:03.578Z,1014.64
2019-04-22T02:36:54.756Z,1014.64
2019-04-22T02:37:54.373Z,1014.64
2019-04-22T02:39:48.742Z,1014.61
2019-04-22T02:41:13.252Z,1014.58
2019-04-22T02:42:32.386Z,1014.59
2019-04-22T02:43:51.785Z,1014.57
2019-04-22T02:45:37.833Z,1014.58
2019-04-22T02:49:25.461Z,1014.56
2019-04-22T02:51:27.711Z,1014.60
2019-04-22T02:52:26.338Z,1014.58
2019-04-22T02:55:11.128Z,1014.58
2019-04-22T02:57:04.531Z,1014.59
2019-04-22T02:58:03.792Z,1014.60
2019-04-22T03:00:07.415Z,1014.55
2019-04-22T03:03:04.163Z,1014.50
2019-04-22T03:04:01.577Z,1014.51
2019-04-22T03:05:45.588Z,1014.48
2019-04-22T03:09:36.069Z,1014.49
2019-04-22T03:11:26.924Z,1014.54
2019-04-22T03:12:26.937Z,1014.54
2019-04-22T03:14:22.396Z,1014.55
2019-04-22T03:15:12.004Z,1014.55
2019-04-22T03:17:16.274Z,1014.55
2019-04-22T03:18:27.124Z,1014.53
2019-04-22T03:20:06.256Z,1014.57
2019-04-22T03:21:06.944Z,1014.55
2019-04-22T03:23:05.732Z,1014.52
2019-04-22T03:26:51.911Z,1014.52
2019-04-22T03:28:51.834Z,1014.52
2019-04-22T03:29:58.357Z,1014.51
2019-04-22T03:32:12.870Z,1014.49
2019-04-22T03:38:25.454Z,1014.41
2019-04-22T03:44:18.642Z,1014.39
2019-04-22T03:45:51.422Z,1014.36
2019-04-22T03:49:02.291Z,1014.34
2019-04-22T03:52:03.148Z,1014.28
2019-04-22T03:52:50.182Z,1014.30
2019-04-22T03:55:38.434Z,1014.29
2019-04-22T03:58:28.338Z,1014.32
2019-04-22T04:01:36.928Z,1014.27
2019-04-22T04:04:24.288Z,1014.29
2019-04-22T04:06:06.653Z,1014.25
2019-04-22T04:07:22.501Z,1014.27
2019-04-22T04:10:10.252Z,1014.25
2019-04-22T04:11:59.897Z,1014.24
2019-04-22T04:13:00.053Z,1014.25
2019-04-22T04:14:53.607Z,1014.20
2019-04-22T04:15:55.664Z,1014.18
2019-04-22T04:17:49.819Z,1014.13
2019-04-22T04:18:46.978Z,1014.19
2019-04-22T04:21:37.131Z,1014.16
2019-04-22T04:23:28.854Z,1014.16
2019-04-22T04:26:31.138Z,1014.19
2019-04-22T04:27:36.252Z,1014.22
2019-04-22T04:29:32.812Z,1014.21
2019-04-22T04:30:18.932Z,1014.26
2019-04-22T04:32:22.888Z,1014.27
2019-04-22T04:33:06.899Z,1014.25
2019-04-22T04:36:01.123Z,1014.29
2019-04-22T04:40:41.746Z,1014.32
2019-04-22T04:43:59.700Z,1014.30
2019-04-22T04:44:48.748Z,1014.32
2019-04-22T04:46:36.206Z,1014.32
2019-04-22T04:52:27.578Z,1014.40
2019-04-22T04:55:17.675Z,1014.44
2019-04-22T04:56:11.941Z,1014.43
2019-04-22T04:59:05.535Z,1014.45
2019-04-22T05:03:49.686Z,1014.48
2019-04-22T05:04:56.217Z,1014.47
2019-04-22T05:09:40.815Z,1014.48
2019-04-22T05:10:47.874Z,1014.43
2019-04-22T05:12:42.303Z,1014.45
2019-04-22T05:13:22.940Z,1014.43
2019-04-22T05:18:06.547Z,1014.42
2019-04-22T05:19:09.745Z,1014.41
2019-04-22T05:21:12.354Z,1014.40
2019-04-22T05:21:58.147Z,1014.40
2019-04-22T05:24:51.852Z,1014.41
2019-04-22T05:26:39.766Z,1014.39
2019-04-22T05:27:39.694Z,1014.41
2019-04-22T05:29:43.984Z,1014.48
2019-04-22T05:30:32.644Z,1014.46
2019-04-22T05:32:28.770Z,1014.52
2019-04-22T05:33:26.287Z,1014.51
2019-04-22T05:35:23.016Z,1014.53
2019-04-22T05:36:24.950Z,1014.53
2019-04-22T05:38:11.615Z,1014.55
2019-04-22T05:39:11.173Z,1014.55
2019-04-22T05:41:02.643Z,1014.59
2019-04-22T05:42:07.547Z,1014.57
2019-04-22T05:43:58.227Z,1014.58
2019-04-22T05:45:00.245Z,1014.59
2019-04-22T05:46:49.624Z,1014.56
2019-04-22T05:47:51.822Z,1014.69
2019-04-22T05:49:34.832Z,1014.65
2019-04-22T05:50:37.357Z,1014.62
2019-04-22T05:52:31.694Z,1014.73
2019-04-22T05:53:32.401Z,1014.74
2019-04-22T05:55:30.588Z,1014.76
2019-04-22T05:56:33.844Z,1014.78
2019-04-22T05:58:15.350Z,1014.82
2019-04-22T05:59:22.779Z,1014.81
2019-04-22T06:02:25.294Z,1014.80
2019-04-22T06:04:07.991Z,1014.82
2019-04-22T06:05:08.202Z,1014.82
2019-04-22T06:06:53.847Z,1014.91
2019-04-22T06:07:52.713Z,1014.89
2019-04-22T06:09:49.625Z,1014.97
2019-04-22T06:10:53.368Z,1014.97
2019-04-22T06:12:35.359Z,1014.92
2019-04-22T06:13:31.959Z,1014.92
2019-04-22T06:15:36.249Z,1014.92
2019-04-22T06:16:42.316Z,1014.88
2019-04-22T06:18:27.060Z,1014.96
2019-04-22T06:19:27.901Z,1014.91
2019-04-22T06:21:24.444Z,1014.98
2019-04-22T06:22:34.292Z,1014.96
2019-04-22T06:24:18.744Z,1014.89
2019-04-22T06:25:23.046Z,1014.91
2019-04-22T06:28:19.749Z,1014.88
2019-04-22T06:29:56.555Z,1014.84
2019-04-22T06:31:02.613Z,1014.83
2019-04-22T06:32:53.811Z,1014.85
2019-04-22T06:33:54.714Z,1014.86
2019-04-22T06:39:39.694Z,1014.85
2019-04-22T06:41:31.598Z,1014.84
2019-04-22T06:42:44.097Z,1014.87
2019-04-22T06:44:24.252Z,1014.86
2019-04-22T06:45:24.541Z,1014.90
2019-04-22T06:47:27.361Z,1014.82
2019-04-22T06:48:19.295Z,1014.87
2019-04-22T06:50:07.539Z,1014.85
2019-04-22T06:51:06.352Z,1014.89
2019-04-22T06:53:02.587Z,1014.94
2019-04-22T06:54:01.804Z,1014.90
2019-04-22T06:55:51.458Z,1014.94
2019-04-22T06:56:58.169Z,1014.96
2019-04-22T06:58:50.040Z,1014.98
2019-04-22T07:01:59.326Z,1014.96
2019-04-22T07:04:31.760Z,1015.08
2019-04-22T07:05:36.689Z,1015.05
2019-04-22T07:07:24.070Z,1015.02
2019-04-22T07:10:28.652Z,1015.05
2019-04-22T07:11:14.188Z,1015.01
2019-04-22T07:13:10.742Z,1015.04
2019-04-22T07:14:04.178Z,1015.10
2019-04-22T07:16:20.307Z,1015.08
2019-04-22T07:17:05.165Z,1015.03
2019-04-22T07:18:54.717Z,1015.04
2019-04-22T07:19:48.733Z,1015.00
2019-04-22T07:22:45.179Z,1015.02
2019-04-22T07:25:41.372Z,1015.10
2019-04-22T07:27:38.376Z,1015.04
2019-04-22T07:28:49.117Z,1015.04
2019-04-22T07:30:26.173Z,1015.09
2019-04-22T07:31:43.127Z,1015.08
2019-04-22T07:33:22.545Z,1015.05
2019-04-22T07:34:33.298Z,1015.07
2019-04-22T07:36:30.535Z,1015.02
2019-04-22T07:37:23.102Z,1015.05
2019-04-22T07:39:05.623Z,1015.07
2019-04-22T07:40:02.584Z,1015.03
2019-04-22T07:41:55.971Z,1015.05
2019-04-22T07:42:57.740Z,1015.05
2019-04-22T07:44:53.244Z,1015.03
2019-04-22T07:45:49.369Z,1015.03
2019-04-22T07:47:44.392Z,1015.05
2019-04-22T07:48:49.900Z,1015.04
2019-04-22T07:50:49.397Z,1015.08
2019-04-22T07:53:32.177Z,1015.03
2019-04-22T07:54:25.942Z,1014.98
2019-04-22T07:56:18.849Z,1015.02
2019-04-22T07:59:15.284Z,1015.01
2019-04-22T08:00:16.210Z,1014.97
2019-04-22T08:02:03.239Z,1014.95
2019-04-22T08:03:10.663Z,1014.96
2019-04-22T08:05:05.679Z,1014.91
2019-04-22T08:06:08.716Z,1014.90
2019-04-22T08:07:52.433Z,1014.95
2019-04-22T08:08:58.406Z,1014.90
2019-04-22T08:11:51.548Z,1014.97
2019-04-22T08:13:36.529Z,1014.93
2019-04-22T08:14:40.931Z,1014.90
2019-04-22T08:16:33.883Z,1014.92
2019-04-22T08:17:53.399Z,1014.80
2019-04-22T08:19:33.207Z,1014.87
2019-04-22T08:20:25.229Z,1014.93
2019-04-22T08:22:14.308Z,1014.91
2019-04-22T08:23:20.498Z,1014.79
2019-04-22T08:25:06.878Z,1014.82
2019-04-22T08:26:05.524Z,1014.89
2019-04-22T08:28:05.632Z,1014.84
2019-04-22T08:29:11.545Z,1014.90
2019-04-22T08:30:53.695Z,1014.89
2019-04-22T08:31:56.527Z,1014.91
2019-04-22T08:33:46.503Z,1014.98
2019-04-22T08:34:42.667Z,1014.92
2019-04-22T08:39:34.495Z,1014.91
2019-04-22T08:40:37.021Z,1014.87
2019-04-22T08:42:34.828Z,1014.90
2019-04-22T08:43:26.748Z,1014.90
2019-04-22T08:45:18.852Z,1015.00
2019-04-22T08:46:23.508Z,1014.94
2019-04-22T08:48:07.739Z,1014.96
2019-04-22T08:49:05.882Z,1014.90
2019-04-22T08:51:00.774Z,1014.87
2019-04-22T08:52:01.451Z,1014.90
2019-04-22T08:55:01.362Z,1014.91
2019-04-22T08:56:46.059Z,1014.81
2019-04-22T08:58:09.875Z,1014.88
2019-04-22T08:59:46.647Z,1014.90
2019-04-22T09:00:43.918Z,1014.85
2019-04-22T09:03:31.738Z,1014.98
2019-04-22T09:05:47.086Z,1014.89
2019-04-22T09:08:20.002Z,1014.93
2019-04-22T09:09:23.262Z,1014.92
2019-04-22T09:11:18.166Z,1014.96
2019-04-22T09:12:15.915Z,1015.04
2019-04-22T09:15:01.153Z,1015.00
2019-04-22T09:17:02.253Z,1014.92
2019-04-22T09:18:03.046Z,1014.96
2019-04-22T09:19:48.110Z,1014.96
2019-04-22T09:21:01.109Z,1014.85
2019-04-22T09:22:41.065Z,1014.85
2019-04-22T09:23:44.389Z,1014.81
2019-04-22T09:25:34.336Z,1014.83
2019-04-22T09:26:36.846Z,1014.79
2019-04-22T09:28:34.505Z,1014.84
2019-04-22T09:29:34.203Z,1014.84
2019-04-22T09:31:19.632Z,1014.73
2019-04-22T09:32:31.763Z,1014.72
2019-04-22T09:34:14.050Z,1014.82
2019-04-22T09:35:10.255Z,1014.73
2019-04-22T09:37:14.436Z,1014.73
2019-04-22T09:38:20.484Z,1014.83
2019-04-22T09:40:08.737Z,1014.77
2019-04-22T09:41:02.025Z,1014.75
2019-04-22T09:42:57.793Z,1014.68
2019-04-22T09:43:53.377Z,1014.73
2019-04-22T09:45:43.322Z,1014.71
2019-04-22T09:46:47.131Z,1014.64
2019-04-22T09:49:46.861Z,1014.66
2019-04-22T09:51:31.157Z,1014.58
2019-04-22T09:52:30.831Z,1014.70
2019-04-22T09:54:29.624Z,1014.66
2019-04-22T09:55:21.690Z,1014.62
2019-04-22T09:57:15.315Z,1014.61
2019-04-22T09:58:21.265Z,1014.59
2019-04-22T10:00:10.247Z,1014.55
2019-04-22T10:01:18.833Z,1014.56
2019-04-22T10:03:11.544Z,1014.53
2019-04-22T10:04:00.852Z,1014.47
2019-04-22T10:06:06.606Z,1014.50
2019-04-22T10:06:45.666Z,1014.56
2019-04-22T10:09:02.254Z,1014.58
2019-04-22T10:11:37.750Z,1014.45
2019-04-22T10:14:30.900Z,1014.43
2019-04-22T10:15:33.779Z,1014.48
2019-04-22T10:17:29.530Z,1014.36
2019-04-22T10:18:27.425Z,1014.38
2019-04-22T10:20:22.366Z,1014.44
2019-04-22T10:21:27.316Z,1014.35
2019-04-22T10:23:17.021Z,1014.28
2019-04-22T10:24:09.195Z,1014.28
2019-04-22T10:26:05.283Z,1014.21
2019-04-22T10:27:04.516Z,1014.14
2019-04-22T10:31:52.760Z,1014.12
2019-04-22T10:32:50.863Z,1014.17
2019-04-22T10:34:26.925Z,1014.06
2019-04-22T10:35:19.921Z,1014.01
2019-04-22T10:37:11.813Z,1013.98
2019-04-22T10:38:10.396Z,1013.97
2019-04-22T10:40:05.742Z,1013.91
2019-04-22T10:41:02.722Z,1013.95
2019-04-22T10:42:54.815Z,1013.89
2019-04-22T10:43:55.075Z,1013.88
2019-04-22T10:45:48.107Z,1013.97
2019-04-22T10:46:48.507Z,1013.98
2019-04-22T10:48:40.321Z,1013.85
2019-04-22T10:49:40.408Z,1013.93
2019-04-22T10:51:33.048Z,1013.87
2019-04-22T10:52:32.999Z,1013.87
2019-04-22T10:54:25.773Z,1013.80
2019-04-22T10:55:25.695Z,1013.76
2019-04-22T10:57:19.971Z,1013.79
2019-04-22T10:58:18.463Z,1013.78
2019-04-22T11:00:11.464Z,1013.74
2019-04-22T11:01:11.550Z,1013.89
2019-04-22T11:03:04.274Z,1013.85
2019-04-22T11:04:03.942Z,1013.79
2019-04-22T11:05:57.060Z,1013.78
2019-04-22T11:07:03.005Z,1013.82
2019-04-22T11:08:55.865Z,1013.79
2019-04-22T11:09:59.232Z,1013.74
2019-04-22T11:11:51.133Z,1013.73
2019-04-22T11:12:43.282Z,1013.74
2019-04-22T11:14:34.882Z,1013.72
2019-04-22T11:15:34.892Z,1013.70
2019-04-22T11:17:27.571Z,1013.75
2019-04-22T11:18:27.518Z,1013.70
2019-04-22T11:20:21.656Z,1013.66
2019-04-22T11:21:20.250Z,1013.63
2019-04-22T11:23:14.277Z,1013.64
2019-04-22T11:24:13.014Z,1013.68
2019-04-22T11:26:05.994Z,1013.60
2019-04-22T11:27:07.009Z,1013.66
2019-04-22T11:28:59.367Z,1013.61
2019-04-22T11:29:59.464Z,1013.62
2019-04-22T11:31:52.430Z,1013.59
2019-04-22T11:32:51.103Z,1013.61
2019-04-22T11:34:44.932Z,1013.63
2019-04-22T11:35:43.910Z,1013.61
2019-04-22T11:37:36.832Z,1013.65
2019-04-22T11:38:37.718Z,1013.65
2019-04-22T11:40:34.789Z,1013.58
2019-04-22T11:41:29.384Z,1013.61
2019-04-22T11:43:22.119Z,1013.56
2019-04-22T11:44:23.466Z,1013.55
2019-04-22T11:46:15.654Z,1013.47
2019-04-22T11:47:15.158Z,1013.60
2019-04-22T11:49:07.989Z,1013.58
2019-04-22T11:50:08.074Z,1013.51
2019-04-22T11:52:01.024Z,1013.62
2019-04-22T11:53:00.790Z,1013.55
2019-04-22T11:54:52.973Z,1013.61
2019-04-22T11:55:53.228Z,1013.61
2019-04-22T11:57:45.642Z,1013.50
2019-04-22T11:58:46.969Z,1013.49
2019-04-22T12:00:38.936Z,1013.39
2019-04-22T12:01:39.013Z,1013.46
2019-04-22T12:03:31.626Z,1013.34
2019-04-22T12:04:32.110Z,1013.37
2019-04-22T12:06:24.090Z,1013.35
2019-04-22T12:07:23.845Z,1013.30
2019-04-22T12:09:17.585Z,1013.30
2019-04-22T12:10:27.223Z,1013.33
2019-04-22T12:12:11.814Z,1013.31
2019-04-22T12:13:10.326Z,1013.22
2019-04-22T12:15:04.137Z,1013.20
2019-04-22T12:16:03.286Z,1013.22
2019-04-22T12:17:57.287Z,1013.20
2019-04-22T12:18:55.560Z,1013.17
2019-04-22T12:20:48.343Z,1013.23
2019-04-22T12:21:49.141Z,1013.18
2019-04-22T12:23:41.308Z,1013.21
2019-04-22T12:24:42.465Z,1013.15
2019-04-22T12:26:34.545Z,1013.08
2019-04-22T12:27:35.057Z,1013.07
2019-04-22T12:29:26.947Z,1013.09
2019-04-22T12:30:27.783Z,1013.08
2019-04-22T12:32:19.252Z,1013.13
2019-04-22T12:33:19.327Z,1013.02
2019-04-22T12:35:13.536Z,1012.98
2019-04-22T12:36:12.797Z,1012.90
2019-04-22T12:38:08.430Z,1012.97
2019-04-22T12:39:05.187Z,1012.92
2019-04-22T12:41:02.762Z,1012.83
2019-04-22T12:41:58.354Z,1012.81
2019-04-22T12:43:51.397Z,1012.78
2019-04-22T12:44:51.176Z,1012.76
2019-04-22T12:46:43.935Z,1012.73
2019-04-22T12:47:44.149Z,1012.84
2019-04-22T12:49:40.142Z,1012.77
2019-04-22T12:50:40.251Z,1012.78
2019-04-22T12:52:37.357Z,1012.70
2019-04-22T12:53:29.760Z,1012.60
2019-04-22T12:55:21.864Z,1012.63
2019-04-22T12:56:21.770Z,1012.57
2019-04-22T12:58:13.956Z,1012.63
2019-04-22T12:59:14.064Z,1012.64
2019-04-22T13:01:06.880Z,1012.62
2019-04-22T13:02:07.182Z,1012.62
2019-04-22T13:04:05.721Z,1012.54
2019-04-22T13:05:00.635Z,1012.57
2019-04-22T13:06:53.467Z,1012.42
2019-04-22T13:07:51.986Z,1012.54
2019-04-22T13:09:45.382Z,1012.51
2019-04-22T13:10:53.342Z,1012.50
2019-04-22T13:12:37.482Z,1012.49
2019-04-22T13:13:38.672Z,1012.48
2019-04-22T13:15:30.825Z,1012.50
2019-04-22T13:16:31.267Z,1012.52
2019-04-22T13:18:31.874Z,1012.19
2019-04-22T13:19:24.895Z,1012.43
2019-04-22T13:21:15.623Z,1012.37
2019-04-22T13:22:16.938Z,1012.27
2019-04-22T13:24:09.121Z,1012.46
2019-04-22T13:25:08.257Z,1012.41
2019-04-22T13:27:01.295Z,1012.34
2019-04-22T13:28:01.059Z,1012.38
2019-04-22T13:29:55.074Z,1012.39
2019-04-22T13:30:54.808Z,1012.37
2019-04-22T13:32:47.143Z,1012.35
2019-04-22T13:33:46.969Z,1012.33
2019-04-22T13:35:39.481Z,1012.40
2019-04-22T13:36:41.749Z,1012.35
2019-04-22T13:38:33.144Z,1012.32
2019-04-22T13:39:31.830Z,1012.29
2019-04-22T13:41:35.468Z,1012.27
2019-04-22T13:42:25.455Z,1012.32
2019-04-22T13:44:18.854Z,1012.29
2019-04-22T13:45:17.910Z,1012.32
2019-04-22T13:47:28.424Z,1012.15
2019-04-22T13:48:28.770Z,1012.25
2019-04-22T13:50:32.622Z,1012.20
2019-04-22T13:53:37.718Z,1012.11
2019-04-22T13:56:13.892Z,1012.21
2019-04-22T13:57:03.369Z,1012.23
2019-04-22T13:58:53.087Z,1012.24
2019-04-22T13:59:46.331Z,1012.22
2019-04-22T14:01:34.712Z,1012.33
2019-04-22T14:02:34.754Z,1012.33
2019-04-22T14:04:26.388Z,1012.29
2019-04-22T14:05:26.916Z,1012.32
2019-04-22T14:07:19.102Z,1012.25
2019-04-22T14:08:19.919Z,1012.35
2019-04-22T14:10:12.156Z,1012.31
2019-04-22T14:11:23.335Z,1012.28
2019-04-22T14:13:05.729Z,1012.22
2019-04-22T14:14:05.099Z,1012.31
2019-04-22T14:15:57.286Z,1012.36
2019-04-22T14:16:58.669Z,1012.34
2019-04-22T14:18:50.026Z,1012.15
2019-04-22T14:19:50.821Z,1012.06
2019-04-22T14:21:45.852Z,1012.09
2019-04-22T14:22:42.658Z,1012.22
2019-04-22T14:24:36.433Z,1012.20
2019-04-22T14:25:36.655Z,1012.27
2019-04-22T14:27:41.801Z,1012.16
2019-04-22T14:28:29.253Z,1012.15
2019-04-22T14:30:20.974Z,1012.19
2019-04-22T14:31:22.335Z,1012.11
2019-04-22T14:33:14.053Z,1012.07
2019-04-22T14:34:15.135Z,1012.02
2019-04-22T14:36:07.445Z,1012.16
2019-04-22T14:37:06.259Z,1012.06
2019-04-22T14:38:59.765Z,1012.11
2019-04-22T14:40:00.245Z,1012.22
2019-04-22T14:42:12.069Z,1012.24
2019-04-22T14:43:17.612Z,1012.25
2019-04-22T14:45:18.830Z,1012.05
2019-04-22T14:47:59.434Z,1012.13
2019-04-22T14:48:58.974Z,1011.98
2019-04-22T14:50:54.606Z,1012.12
2019-04-22T14:51:49.901Z,1012.14
2019-04-22T14:53:41.439Z,1012.13
2019-04-22T14:54:37.667Z,1012.11
2019-04-22T14:56:16.127Z,1012.10
2019-04-22T14:57:15.264Z,1012.21
2019-04-22T14:59:09.276Z,1012.17
2019-04-22T15:00:08.124Z,1012.17
2019-04-22T15:02:01.438Z,1012.21
2019-04-22T15:03:01.566Z,1012.07
2019-04-22T15:04:54.235Z,1012.19
2019-04-22T15:05:54.483Z,1012.07
2019-04-22T15:07:46.173Z,1012.15
2019-04-22T15:08:46.988Z,1012.31
2019-04-22T15:10:39.912Z,1012.14
2019-04-22T15:11:52.813Z,1012.23
2019-04-22T15:13:31.694Z,1012.12
2019-04-22T15:14:31.545Z,1012.17
2019-04-22T15:16:25.660Z,1012.07
2019-04-22T15:17:24.962Z,1012.13
2019-04-22T15:19:17.892Z,1012.04
2019-04-22T15:20:17.047Z,1012.03
2019-04-22T15:22:10.460Z,1012.12
2019-04-22T15:23:10.838Z,1012.13
2019-04-22T15:25:02.959Z,1012.10
2019-04-22T15:26:02.444Z,1012.12
2019-04-22T15:27:55.332Z,1012.15
2019-04-22T15:28:55.474Z,1012.09
2019-04-22T15:30:48.057Z,1012.06
2019-04-22T15:31:49.184Z,1012.08
2019-04-22T15:33:41.666Z,1011.97
2019-04-22T15:34:41.569Z,1012.06
2019-04-22T15:36:33.448Z,1012.05
2019-04-22T15:37:33.403Z,1012.07
2019-04-22T15:39:27.308Z,1012.05
2019-04-22T15:40:26.810Z,1012.03
2019-04-22T15:42:27.640Z,1012.02
2019-04-22T15:43:20.406Z,1011.99
2019-04-22T15:45:14.368Z,1012.03
2019-04-22T15:46:11.772Z,1012.01
2019-04-22T15:48:04.395Z,1011.94
2019-04-22T15:49:04.347Z,1011.96
2019-04-22T15:50:58.367Z,1012.06
2019-04-22T15:51:59.394Z,1011.92
2019-04-22T15:53:49.794Z,1011.98
2019-04-22T15:54:51.801Z,1011.99
2019-04-22T15:56:42.557Z,1012.00
2019-04-22T15:57:43.804Z,1012.02
2019-04-22T15:59:47.695Z,1012.02
2019-04-22T16:00:45.908Z,1012.01
2019-04-22T16:02:27.956Z,1012.03
2019-04-22T16:03:29.020Z,1012.02
2019-04-22T16:05:20.643Z,1012.03
2019-04-22T16:06:21.937Z,1011.97
2019-04-22T16:08:14.858Z,1011.99
2019-04-22T16:09:13.305Z,1011.99
2019-04-22T16:11:06.230Z,1011.95
2019-04-22T16:12:16.314Z,1011.98
2019-04-22T16:14:00.086Z,1012.02
2019-04-22T16:14:59.674Z,1012.01
2019-04-22T16:16:52.547Z,1012.03
2019-04-22T16:17:52.935Z,1012.02
2019-04-22T16:19:45.171Z,1012.01
2019-04-22T16:20:44.095Z,1011.95
2019-04-22T16:22:36.995Z,1011.96
2019-04-22T16:23:38.140Z,1011.95
2019-04-22T16:25:29.580Z,1012.02
2019-04-22T16:26:30.533Z,1011.94
2019-04-22T16:28:22.374Z,1011.96
2019-04-22T16:29:23.329Z,1011.92
2019-04-22T16:31:15.497Z,1011.95
2019-04-22T16:32:15.633Z,1011.93
2019-04-22T16:34:09.359Z,1011.94
2019-04-22T16:35:08.739Z,1011.92
2019-04-22T16:37:00.836Z,1011.92
2019-04-22T16:38:01.040Z,1011.94
2019-04-22T16:39:54.621Z,1011.86
2019-04-22T16:40:54.591Z,1011.85
2019-04-22T16:42:54.582Z,1011.91
2019-04-22T16:43:46.673Z,1011.87
2019-04-22T16:45:39.880Z,1011.79
2019-04-22T16:46:39.363Z,1011.89
2019-04-22T16:48:31.556Z,1011.80
2019-04-22T16:49:32.073Z,1011.83
2019-04-22T16:51:24.475Z,1011.87
2019-04-22T16:52:23.935Z,1011.86
2019-04-22T16:54:17.960Z,1011.89
2019-04-22T16:55:17.010Z,1011.83
2019-04-22T16:57:10.164Z,1011.93
2019-04-22T16:58:10.524Z,1011.92
2019-04-22T17:00:02.901Z,1011.99
2019-04-22T17:01:02.948Z,1011.91
2019-04-22T17:02:56.123Z,1011.85
2019-04-22T17:03:54.787Z,1011.91
2019-04-22T17:05:47.596Z,1011.75
2019-04-22T17:06:47.880Z,1011.76
2019-04-22T17:08:40.250Z,1011.84
2019-04-22T17:09:41.603Z,1011.83
2019-04-22T17:11:34.002Z,1011.83
2019-04-22T17:12:45.728Z,1011.77
2019-04-22T17:14:35.141Z,1011.82
2019-04-22T17:15:26.923Z,1011.80
2019-04-22T17:17:18.415Z,1011.81
2019-04-22T17:18:19.183Z,1011.84
2019-04-22T17:20:11.362Z,1011.84
2019-04-22T17:21:12.410Z,1011.78
2019-04-22T17:23:05.334Z,1011.78
2019-04-22T17:24:03.785Z,1011.74
2019-04-22T17:25:56.633Z,1011.84
2019-04-22T17:26:56.671Z,1011.79
2019-04-22T17:28:49.423Z,1011.81
2019-04-22T17:29:50.462Z,1011.82
2019-04-22T17:31:48.431Z,1011.86
2019-04-22T17:32:44.825Z,1011.88
2019-04-22T17:34:35.939Z,1011.91
2019-04-22T17:35:35.915Z,1011.90
2019-04-22T17:37:31.480Z,1011.87
2019-04-22T17:38:38.800Z,1011.93
2019-04-22T17:40:38.839Z,1011.90
2019-04-22T17:41:33.948Z,1011.90
2019-04-22T17:43:44.166Z,1011.93
2019-04-22T17:44:39.957Z,1011.90
2019-04-22T17:46:24.810Z,1011.86
2019-04-22T17:47:23.619Z,1011.89
2019-04-22T17:49:25.566Z,1011.90
2019-04-22T17:50:24.902Z,1011.94
2019-04-22T17:52:10.680Z,1011.95
2019-04-22T17:53:22.951Z,1011.88
2019-04-22T17:54:57.230Z,1011.96
2019-04-22T17:56:10.598Z,1011.94
2019-04-22T17:58:05.646Z,1011.93
2019-04-22T17:58:57.403Z,1011.93
2019-04-22T18:00:47.286Z,1011.92
2019-04-22T18:01:38.276Z,1011.97
2019-04-22T18:03:31.078Z,1011.99
2019-04-22T18:04:21.544Z,1011.90
2019-04-22T18:06:45.311Z,1011.92
2019-04-22T18:07:49.321Z,1011.95
2019-04-22T18:09:50.240Z,1011.95
2019-04-22T18:10:56.065Z,1011.93
2019-04-22T18:12:25.759Z,1011.96
2019-04-22T18:13:28.255Z,1011.96
2019-04-22T18:15:14.664Z,1011.95
2019-04-22T18:16:12.916Z,1011.92
2019-04-22T18:18:12.983Z,1011.94
2019-04-22T18:19:08.992Z,1011.94
2019-04-22T18:20:52.135Z,1011.94
2019-04-22T18:21:53.440Z,1011.89
2019-04-22T18:23:41.585Z,1011.91
2019-04-22T18:24:49.330Z,1011.92
2019-04-22T18:26:43.642Z,1011.95
2019-04-22T18:27:55.303Z,1011.95
2019-04-22T18:29:34.468Z,1011.86
2019-04-22T18:30:28.766Z,1011.87
2019-04-22T18:32:20.410Z,1011.90
2019-04-22T18:33:28.694Z,1011.87
2019-04-22T18:35:20.432Z,1011.82
2019-04-22T18:36:19.642Z,1011.90
2019-04-22T18:38:27.998Z,1011.89
2019-04-22T18:39:21.295Z,1011.93
2019-04-22T18:41:08.067Z,1011.91
2019-04-22T18:42:03.660Z,1011.92
2019-04-22T18:43:58.783Z,1011.92
2019-04-22T18:45:21.622Z,1011.87
2019-04-22T18:46:54.985Z,1011.90
2019-04-22T18:47:45.622Z,1011.88
2019-04-22T18:49:45.428Z,1011.91
2019-04-22T18:50:52.472Z,1011.91
2019-04-22T18:52:42.740Z,1011.92
2019-04-22T18:53:44.713Z,1011.92
2019-04-22T18:55:26.777Z,1011.92
2019-04-22T18:56:40.430Z,1011.90
2019-04-22T18:58:18.786Z,1011.91
2019-04-22T18:59:12.398Z,1011.91
2019-04-22T19:00:55.678Z,1011.98
2019-04-22T19:02:01.458Z,1011.90
2019-04-22T19:03:58.206Z,1011.96
2019-04-22T19:04:56.168Z,1011.96
2019-04-22T19:07:01.778Z,1011.91
2019-04-22T19:08:07.144Z,1011.91
2019-04-22T19:10:07.960Z,1011.94
2019-04-22T19:11:02.593Z,1011.98
2019-04-22T19:12:52.396Z,1011.94
2019-04-22T19:15:45.522Z,1011.94
2019-04-22T19:16:40.051Z,1011.92
2019-04-22T19:18:35.046Z,1011.92
2019-04-22T19:21:44.467Z,1011.89
2019-04-22T19:22:29.947Z,1011.86
2019-04-22T19:24:15.061Z,1011.88